Hartford, Connecticut
Traffic Map
Current Weather Conditions
Hartford, Connecticut
Overcast
Overcast

Feels Like: -3°
Wind Chill: -3° Ceiling: 3500
Heat Index: Visibility: 10mi
Dew Point: -7° Wind: 8mph
Humidity: 59% Direction: 290° (WNW)
Pressure: 30.07in Gusts: 20mph
Raw Report DataKHFD 192153Z 29007G17KT 10SM OVC035 01/M07 A3007 RMK AO2 SLP181 T00061067
Traffic Incident Summary
Active as of:
Severity:
Category:
InformationThere was an issue retrieving the traffic information for this location. Please try a different location or try again shortly.
Advertisements
Track Severe Weather on mobile